Terminal Aerodrome Forecast
Issued by NWS

Current Version | Previous Version | Text Only | Print | Product List | Glossary On
Versions: 1 2 3 4 5 6 7 8 9 10 11 12 13 14 15 16 17 18 19 20 21 22
000
FTUS46 KLOX 301700
TAFPRB
TAF
KPRB 301730Z 3018/0118 36004KT P6SM SKC
     FM302200 33008KT P6SM SKC
     FM010400 VRB03KT P6SM SKC
     FM011100 VRB03KT 2SM BR BKN003=

USA.gov is the U.S. government's official web portal to all federal, state and local government web resources and services.